createdAt,value
2022-10-05T03:48:43.674Z,0.65
2022-10-05T03:51:51.333Z,1.05
2022-10-05T03:54:59.802Z,1.23
2022-10-05T03:58:27.479Z,0.62
2022-10-05T04:01:39.183Z,0.95
2022-10-05T04:05:03.225Z,0.50
2022-10-05T04:08:19.554Z,0.60
2022-10-05T04:11:32.510Z,0.98
2022-10-05T04:14:41.662Z,0.98
2022-10-05T04:17:48.818Z,0.73
2022-10-05T04:20:56.149Z,0.27
2022-10-05T04:24:01.077Z,1.05
2022-10-05T04:27:19.812Z,1.25
2022-10-05T04:30:22.737Z,0.80
2022-10-05T04:33:27.487Z,1.52
2022-10-05T04:36:45.892Z,0.95
2022-10-05T04:40:03.697Z,1.05
2022-10-05T04:43:36.062Z,1.75
2022-10-05T04:47:02.076Z,1.25
2022-10-05T04:50:11.945Z,0.40
2022-10-05T04:53:44.153Z,0.90
2022-10-05T04:56:52.895Z,0.73
2022-10-05T05:00:09.553Z,1.75
2022-10-05T05:03:50.237Z,0.93
2022-10-05T05:07:00.375Z,1.75
2022-10-05T05:10:24.199Z,1.42
2022-10-05T05:13:45.356Z,0.82
2022-10-05T05:17:12.903Z,1.10
2022-10-05T05:20:31.066Z,1.00
2022-10-05T05:23:46.418Z,0.50
2022-10-05T05:27:00.847Z,1.60
2022-10-05T05:30:18.786Z,1.27
2022-10-05T05:33:27.271Z,1.67
2022-10-05T05:36:41.437Z,1.48
2022-10-05T05:40:03.887Z,2.17
2022-10-05T05:43:24.204Z,2.15
2022-10-05T05:47:05.262Z,1.00
2022-10-05T05:50:33.689Z,1.00
2022-10-05T05:53:45.454Z,0.65
2022-10-05T05:57:00.022Z,1.12
2022-10-05T06:00:08.113Z,1.60
2022-10-05T06:03:34.171Z,1.33
2022-10-05T06:06:42.265Z,0.62
2022-10-05T06:13:01.502Z,1.25
2022-10-05T06:16:11.085Z,0.88
2022-10-05T06:19:19.247Z,1.30
2022-10-05T06:22:28.549Z,1.42
2022-10-05T06:25:44.423Z,1.23
2022-10-05T06:28:57.855Z,1.90
2022-10-05T06:32:16.813Z,0.73
2022-10-05T06:35:29.219Z,2.53
2022-10-05T06:38:40.229Z,1.65
2022-10-05T06:42:04.531Z,1.50
2022-10-05T06:45:41.538Z,0.82
2022-10-05T06:49:08.909Z,1.92
2022-10-05T06:52:34.346Z,1.50
2022-10-05T06:56:10.187Z,2.15
2022-10-05T06:59:38.955Z,2.30
2022-10-05T07:03:00.413Z,0.98
2022-10-05T07:06:35.021Z,1.87
2022-10-05T07:10:04.889Z,1.35
2022-10-05T07:13:52.474Z,2.60
2022-10-05T07:17:29.573Z,1.12
2022-10-05T07:20:49.513Z,1.92
2022-10-05T07:24:34.521Z,2.12
2022-10-05T07:28:07.195Z,2.70
2022-10-05T07:31:19.044Z,3.37
2022-10-05T07:34:44.717Z,1.50
2022-10-05T07:37:55.428Z,2.33
2022-10-05T07:41:32.187Z,2.08
2022-10-05T07:44:48.241Z,2.00
2022-10-05T07:47:54.942Z,1.80
2022-10-05T07:51:04.663Z,2.83
2022-10-05T07:54:23.250Z,2.83
2022-10-05T07:58:00.753Z,2.58
2022-10-05T08:01:26.155Z,3.05
2022-10-05T08:04:41.582Z,3.25
2022-10-05T08:07:45.016Z,3.83
2022-10-05T08:11:02.405Z,3.15
2022-10-05T08:14:23.570Z,2.85
2022-10-05T08:17:32.045Z,2.72
2022-10-05T08:20:54.938Z,2.62
2022-10-05T08:24:06.784Z,2.12
2022-10-05T08:27:20.419Z,2.60
2022-10-05T08:30:23.657Z,2.40
2022-10-05T08:33:31.493Z,3.25
2022-10-05T08:37:05.818Z,2.97
2022-10-05T08:40:37.097Z,3.92
2022-10-05T08:43:57.993Z,3.62
2022-10-05T08:47:03.017Z,3.87
2022-10-05T08:50:23.047Z,3.15
2022-10-05T08:53:59.603Z,2.33
2022-10-05T08:57:11.010Z,4.07
2022-10-05T09:00:19.615Z,2.62
2022-10-05T09:03:37.921Z,1.95
2022-10-05T09:09:59.539Z,2.25
2022-10-05T09:13:28.670Z,1.50
2022-10-05T09:17:06.680Z,1.60
2022-10-05T09:20:30.806Z,2.05
2022-10-05T09:23:39.420Z,2.78
2022-10-05T09:26:45.365Z,2.33
2022-10-05T09:29:50.660Z,1.73
2022-10-05T09:33:27.567Z,1.98
2022-10-05T09:37:01.710Z,2.12
2022-10-05T09:40:32.725Z,1.98
2022-10-05T09:43:57.811Z,2.58
2022-10-05T09:47:09.443Z,1.83
2022-10-05T09:50:38.010Z,1.45
2022-10-05T09:53:52.396Z,1.73
2022-10-05T09:57:21.526Z,1.40
2022-10-05T10:00:32.345Z,2.22
2022-10-05T10:03:53.381Z,2.40
2022-10-05T10:07:14.139Z,2.35
2022-10-05T10:10:31.505Z,2.12
2022-10-05T10:13:55.720Z,1.67
2022-10-05T10:17:55.593Z,2.00
2022-10-05T10:21:25.246Z,2.33
2022-10-05T10:24:33.680Z,1.92
2022-10-05T10:27:58.461Z,1.90
2022-10-05T10:31:06.447Z,1.62
2022-10-05T10:34:39.979Z,1.60
2022-10-05T10:38:06.023Z,1.60
2022-10-05T10:41:13.971Z,1.40
2022-10-05T10:44:31.441Z,1.75
2022-10-05T10:47:48.140Z,1.57
2022-10-05T10:50:53.127Z,1.80
2022-10-05T10:54:06.781Z,2.10
2022-10-05T10:57:16.846Z,1.30
2022-10-05T11:00:47.308Z,1.65
2022-10-05T11:04:36.207Z,1.52
2022-10-05T11:08:06.197Z,1.30
2022-10-05T11:11:25.777Z,4.70
2022-10-05T11:14:46.369Z,4.28
2022-10-05T11:17:58.163Z,3.70
2022-10-05T11:21:36.601Z,2.40
2022-10-05T11:25:14.221Z,2.30
2022-10-05T11:28:49.599Z,1.77
2022-10-05T11:32:14.394Z,2.60
2022-10-05T11:35:31.682Z,1.73
2022-10-05T11:38:39.705Z,2.80
2022-10-05T11:41:56.836Z,1.92
2022-10-05T11:45:37.974Z,2.45
2022-10-05T11:48:42.881Z,1.77
2022-10-05T11:51:57.282Z,1.77
2022-10-05T11:55:17.097Z,2.20
2022-10-05T11:58:27.209Z,2.40
2022-10-05T12:01:37.935Z,2.15
2022-10-05T12:04:52.120Z,1.67
2022-10-05T12:08:19.362Z,2.87
2022-10-05T12:11:58.059Z,2.30
2022-10-05T12:15:08.743Z,2.75
2022-10-05T12:18:16.932Z,1.27
2022-10-05T12:21:39.338Z,1.15
2022-10-05T12:25:02.945Z,1.37
2022-10-05T12:28:11.010Z,1.85
2022-10-05T12:31:30.152Z,1.67
2022-10-05T12:35:03.354Z,2.15
2022-10-05T12:38:20.229Z,2.00
2022-10-05T12:41:30.182Z,1.95
2022-10-05T12:45:29.032Z,1.73
2022-10-05T12:48:43.716Z,2.00
2022-10-05T12:51:54.658Z,1.60
2022-10-05T12:55:01.684Z,1.27
2022-10-05T13:01:25.861Z,0.77
2022-10-05T13:04:38.366Z,1.02
2022-10-05T13:08:04.473Z,1.35
2022-10-05T13:11:19.406Z,0.62
2022-10-05T13:14:48.687Z,0.75
2022-10-05T13:17:57.803Z,0.95
2022-10-05T13:21:05.776Z,0.68
2022-10-05T13:24:29.758Z,0.95
2022-10-05T13:27:40.720Z,0.90
2022-10-05T13:30:54.330Z,0.80
2022-10-05T13:34:06.572Z,0.80
2022-10-05T13:37:11.639Z,0.47
2022-10-05T13:40:35.878Z,0.55
2022-10-05T13:44:00.846Z,0.80
2022-10-05T13:47:20.845Z,0.70
2022-10-05T13:50:42.751Z,0.57
2022-10-05T13:53:49.225Z,0.62
2022-10-05T13:57:15.504Z,0.80
2022-10-05T14:00:27.013Z,0.80
2022-10-05T14:03:42.126Z,0.85
2022-10-05T14:06:56.701Z,0.65
2022-10-05T14:10:01.183Z,0.57
2022-10-05T14:13:12.745Z,1.33
2022-10-05T14:16:23.228Z,0.90
2022-10-05T14:19:33.196Z,0.82
2022-10-05T14:22:42.086Z,3.28
2022-10-05T14:25:53.657Z,1.85
2022-10-05T14:29:02.062Z,1.05
2022-10-05T14:32:18.584Z,0.93
2022-10-05T14:35:22.135Z,0.73
2022-10-05T14:38:28.598Z,1.00
2022-10-05T14:41:36.229Z,0.95
2022-10-05T14:47:49.006Z,1.20
2022-10-05T14:50:57.611Z,0.80
2022-10-05T14:54:16.214Z,1.00
2022-10-05T14:57:32.017Z,0.82
2022-10-05T15:00:48.846Z,1.33
2022-10-05T15:04:02.904Z,1.17
2022-10-05T15:07:24.798Z,1.12
2022-10-05T15:10:56.404Z,1.23
2022-10-05T15:14:00.254Z,0.65
2022-10-05T15:17:12.582Z,0.88
2022-10-05T15:20:24.800Z,0.80
2022-10-05T15:23:42.983Z,1.05
2022-10-05T15:26:53.269Z,1.05
2022-10-05T15:30:09.174Z,0.62
2022-10-05T15:33:24.544Z,0.98
2022-10-05T15:36:43.081Z,1.00
